Time;durP1;ratioP1;P1;durP2;ratioP2;P2;SDS_P1;SDS_P2;PMS_P1;PMS_P2;Temp;Humidity;BMP_temperature;BMP_pressure;BME280_temperature;BME280_humidity;BME280_pressure;Samples;Min_cycle;Max_cycle;Signal;HPM_P1;HPM_P2
2023/11/05 00:09:35;;;;;;;64.20;40.10;;;2.30;99.90;;;;;;5913483;24;20195;-86
2023/11/05 00:55:27;;;;;;;70.13;41.30;;;2.10;99.90;;;;;;5835874;24;20182;-86
2023/11/05 01:25:40;;;;;;;67.90;40.33;;;2.60;99.90;;;;;;5941598;23;20192;-86
2023/11/05 01:55:59;;;;;;;71.17;42.50;;;2.40;99.90;;;;;;5841051;24;20269;-86
2023/11/05 02:57:02;;;;;;;82.83;51.10;;;4.10;99.90;;;;;;5772088;24;20173;-85
2023/11/05 03:27:30;;;;;;;84.17;51.77;;;4.20;99.90;;;;;;5889834;23;20220;-87
2023/11/05 03:52:46;;;;;;;85.30;51.87;;;4.50;99.90;;;;;;5802550;24;20200;-90
2023/11/05 04:48:29;;;;;;;81.57;46.40;;;4.40;99.90;;;;;;6117303;23;20176;-89
2023/11/05 05:18:56;;;;;;;59.20;34.87;;;4.70;99.90;;;;;;5974224;23;20189;-87
2023/11/05 05:48:46;;;;;;;50.10;30.90;;;4.80;99.90;;;;;;6101205;23;20186;-88
2023/11/05 06:14:42;;;;;;;37.17;23.07;;;5.20;99.90;;;;;;6029593;23;20184;-85
2023/11/05 06:55:17;;;;;;;25.47;17.87;;;5.70;99.90;;;;;;5935607;23;20266;-87
2023/11/05 07:25:30;;;;;;;24.20;16.03;;;6.20;99.90;;;;;;5975524;23;20211;-88
2023/11/05 07:50:59;;;;;;;18.77;12.93;;;7.50;99.90;;;;;;5945570;23;20209;-88
2023/11/05 08:11:16;;;;;;;12.87;10.13;;;7.80;99.90;;;;;;5787466;24;20175;-86
2023/11/05 09:02:04;;;;;;;12.07;7.60;;;8.40;99.90;;;;;;5735289;24;20187;-88
2023/11/05 09:37:11;;;;;;;7.30;5.97;;;9.10;99.90;;;;;;5848984;24;20604;-89
2023/11/05 10:33:17;;;;;;;9.47;6.40;;;9.20;99.90;;;;;;5816325;24;20169;-87
2023/11/05 10:58:21;;;;;;;11.23;7.33;;;9.20;99.90;;;;;;6004184;23;20180;-90
2023/11/05 11:23:39;;;;;;;10.27;7.67;;;9.10;99.90;;;;;;5809260;24;20208;-87
2023/11/05 11:49:12;;;;;;;11.17;8.33;;;9.20;99.90;;;;;;5737457;24;20195;-88
2023/11/05 12:14:03;;;;;;;11.17;9.10;;;9.30;99.90;;;;;;5635614;25;20353;-90
2023/11/05 12:44:08;;;;;;;14.97;10.43;;;9.00;99.90;;;;;;6208996;22;20191;-89
2023/11/05 13:04:42;;;;;;;16.30;10.67;;;9.00;99.90;;;;;;6126603;23;20333;-87
2023/11/05 13:34:34;;;;;;;14.30;11.70;;;8.90;99.90;;;;;;6050407;23;20765;-87
2023/11/05 13:40:03;;;;;;;17.30;12.00;;;8.90;99.90;;;;;;6202347;22;20177;-88
2023/11/05 14:05:14;;;;;;;17.50;13.10;;;8.90;99.90;;;;;;6221662;22;20530;31
2023/11/05 14:55:14;;;;;;;20.33;16.17;;;9.00;99.90;;;;;;6122933;23;20344;-90
2023/11/05 15:31:09;;;;;;;24.30;18.10;;;8.90;99.90;;;;;;6223128;22;21491;-86
2023/11/05 16:16:15;;;;;;;25.83;17.57;;;9.00;99.90;;;;;;6218846;22;20997;-89
2023/11/05 18:35:19;;;;;;;22.03;15.50;;;9.00;99.90;;;;;;6073148;23;20316;-88
2023/11/05 19:00:52;;;;;;;24.97;16.70;;;8.40;99.90;;;;;;5889958;24;20177;-91
2023/11/05 19:35:54;;;;;;;26.63;17.53;;;8.30;99.90;;;;;;6127849;23;20644;-90
2023/11/05 19:56:54;;;;;;;27.47;18.23;;;8.20;99.90;;;;;;6209192;23;20306;-90
2023/11/05 20:01:13;;;;;;;25.10;17.70;;;8.20;99.90;;;;;;6120387;23;20191;-89
2023/11/05 20:32:21;;;;;;;28.60;19.73;;;7.90;99.90;;;;;;6291660;22;20282;-89
2023/11/05 20:57:42;;;;;;;30.37;19.83;;;8.00;99.90;;;;;;6176050;23;20162;-89
2023/11/05 21:02:01;;;;;;;29.63;19.63;;;7.90;99.90;;;;;;6164437;23;20190;-89
2023/11/05 21:32:48;;;;;;;25.00;18.30;;;8.30;99.90;;;;;;6147676;23;20511;-88
2023/11/05 22:23:38;;;;;;;17.80;12.43;;;9.50;99.90;;;;;;6251128;22;20163;-89
2023/11/05 22:43:49;;;;;;;10.33;8.97;;;9.90;99.90;;;;;;5919260;24;20183;-87
2023/11/05 23:34:33;;;;;;;8.03;6.13;;;9.90;99.90;;;;;;5939137;24;20476;-89
2023/11/05 23:59:39;;;;;;;9.47;5.63;;;9.80;99.90;;;;;;5998024;23;20329;-87
